This is the latest recevied weather packets stored in our database for station/object VK3BKO-13. If no packets are shown the sender has not sent any weather packets the latest 10 day(s).
| Time | Temp. | Humidity | Pressure | Rain* | Wind** | Luminosity | Snow |
|---|---|---|---|---|---|---|---|
| 1777510023 | 23.33° C | 49% | 1026.8 hPa | 0 mm | - | 326 W/m² | - |
| 1777509124 | 23.33° C | 50% | 1026.4 hPa | 0 mm | - | 332 W/m² | - |
| 1777508224 | 22.78° C | 49% | 1026.4 hPa | 0 mm | - | 376 W/m² | - |
| 1777507324 | 22.22° C | 51% | 1026.4 hPa | 0 mm | - | 375 W/m² | - |
| 1777506423 | 22.22° C | 53% | 1026.8 hPa | 0 mm | - | 272 W/m² | - |
| 1777505524 | 21.11° C | 54% | 1026.8 hPa | 0 mm | - | 252 W/m² | - |
| 1777504624 | 21.11° C | 56% | 1026.8 hPa | 0 mm | - | 256 W/m² | - |
| 1777503724 | 18.33° C | 71% | 1026.8 hPa | 0 mm | - | 141 W/m² | - |
| 1777502824 | 15° C | 83% | 1026.8 hPa | 0 mm | - | 112 W/m² | - |
| 1777501924 | 13.33° C | 90% | 1026.8 hPa | 0 mm | - | 96 W/m² | - |
| 1777501025 | 11.67° C | 93% | 1026.8 hPa | 0 mm | - | 80 W/m² | - |
| 1777500124 | 11.11° C | 94% | 1026.8 hPa | 0 mm | - | 66 W/m² | - |
| 1777499223 | 10° C | 95% | 1026.4 hPa | 0 mm | - | 44 W/m² | - |
| 1777498324 | 8.89° C | 95% | 1026.4 hPa | 0 mm | - | 24 W/m² | - |
| 1777497423 | 8.33° C | 95% | 1026.4 hPa | 0 mm | - | 11 W/m² | - |
| 1777496523 | 8.33° C | 95% | 1026.4 hPa | 0 mm | - | 4 W/m² | - |
| 1777495624 | 8.33° C | 94% | 1026.1 hPa | 0 mm | - | 0 W/m² | - |
| 1777494724 | 8.89° C | 95% | 1025.8 hPa | 0 mm | - | 0 W/m² | - |
| 1777493824 | 8.33° C | 94% | 1026.1 hPa | 0 mm | - | 0 W/m² | - |
| 1777492924 | 8.89° C | 94% | 1025.8 hPa | 0 mm | - | 0 W/m² | - |
| 1777492024 | 8.89° C | 94% | 1025.4 hPa | 0 mm | - | 0 W/m² | - |
| 1777491124 | 8.89° C | 94% | 1025.8 hPa | 0 mm | - | 0 W/m² | - |
| 1777490223 | 8.89° C | 94% | 1025.8 hPa | 0 mm | - | 0 W/m² | - |
| 1777489324 | 8.89° C | 94% | 1025.4 hPa | 0 mm | - | 0 W/m² | - |
| 1777488423 | 9.44° C | 94% | 1025.8 hPa | 0 mm | - | 0 W/m² | - |
* Rain latest hour (hover to see other rain measurements)
** Current wind speed in m/s (hover to see current wind gust speed)